sensor_id;sensor_type;location;lat;lon;timestamp;P1;durP1;ratioP1;P2;durP2;ratioP2
25946;SDS011;13745;51.470;9.894;2023-05-10T00:00:59;3.25;;;2.60;;
25946;SDS011;13745;51.470;9.894;2023-05-10T00:03:44;5.05;;;2.22;;
25946;SDS011;13745;51.470;9.894;2023-05-10T00:06:29;3.85;;;2.03;;
25946;SDS011;13745;51.470;9.894;2023-05-10T00:09:15;3.10;;;2.20;;
25946;SDS011;13745;51.470;9.894;2023-05-10T00:12:00;2.45;;;1.73;;
25946;SDS011;13745;51.470;9.894;2023-05-10T00:14:47;3.25;;;2.30;;
25946;SDS011;13745;51.470;9.894;2023-05-10T00:17:32;3.15;;;2.20;;
25946;SDS011;13745;51.470;9.894;2023-05-10T00:20:17;2.70;;;2.13;;
25946;SDS011;13745;51.470;9.894;2023-05-10T00:23:02;4.15;;;1.95;;
25946;SDS011;13745;51.470;9.894;2023-05-10T00:25:47;4.25;;;2.50;;
25946;SDS011;13745;51.470;9.894;2023-05-10T00:28:33;5.07;;;3.05;;
25946;SDS011;13745;51.470;9.894;2023-05-10T00:31:19;2.60;;;2.03;;
25946;SDS011;13745;51.470;9.894;2023-05-10T00:34:04;2.85;;;1.90;;
25946;SDS011;13745;51.470;9.894;2023-05-10T00:36:49;2.95;;;2.20;;
25946;SDS011;13745;51.470;9.894;2023-05-10T00:39:34;4.35;;;2.80;;
25946;SDS011;13745;51.470;9.894;2023-05-10T00:42:19;2.22;;;1.60;;
25946;SDS011;13745;51.470;9.894;2023-05-10T00:45:05;4.80;;;2.83;;
25946;SDS011;13745;51.470;9.894;2023-05-10T00:47:53;5.50;;;3.33;;
25946;SDS011;13745;51.470;9.894;2023-05-10T00:50:39;2.85;;;2.30;;
25946;SDS011;13745;51.470;9.894;2023-05-10T00:53:25;4.28;;;2.15;;
25946;SDS011;13745;51.470;9.894;2023-05-10T00:56:10;2.35;;;2.00;;
25946;SDS011;13745;51.470;9.894;2023-05-10T00:58:56;3.50;;;2.20;;
25946;SDS011;13745;51.470;9.894;2023-05-10T01:01:41;2.72;;;1.80;;
25946;SDS011;13745;51.470;9.894;2023-05-10T01:04:28;4.00;;;1.80;;
25946;SDS011;13745;51.470;9.894;2023-05-10T01:07:14;2.33;;;2.00;;
25946;SDS011;13745;51.470;9.894;2023-05-10T01:10:00;4.78;;;1.90;;
25946;SDS011;13745;51.470;9.894;2023-05-10T01:12:46;7.78;;;2.35;;
25946;SDS011;13745;51.470;9.894;2023-05-10T01:15:32;2.85;;;2.40;;
25946;SDS011;13745;51.470;9.894;2023-05-10T01:18:17;3.58;;;2.38;;
25946;SDS011;13745;51.470;9.894;2023-05-10T01:21:10;4.28;;;2.17;;
25946;SDS011;13745;51.470;9.894;2023-05-10T01:24:08;3.13;;;2.13;;
25946;SDS011;13745;51.470;9.894;2023-05-10T01:30:20;2.80;;;2.10;;
25946;SDS011;13745;51.470;9.894;2023-05-10T01:33:38;3.53;;;2.33;;
25946;SDS011;13745;51.470;9.894;2023-05-10T01:36:29;6.35;;;2.75;;
25946;SDS011;13745;51.470;9.894;2023-05-10T01:39:17;4.40;;;2.67;;
25946;SDS011;13745;51.470;9.894;2023-05-10T01:42:09;3.30;;;2.65;;
25946;SDS011;13745;51.470;9.894;2023-05-10T01:44:56;6.18;;;2.85;;
25946;SDS011;13745;51.470;9.894;2023-05-10T01:47:46;2.67;;;2.30;;
25946;SDS011;13745;51.470;9.894;2023-05-10T01:50:37;6.10;;;2.50;;
25946;SDS011;13745;51.470;9.894;2023-05-10T01:53:24;3.22;;;2.22;;
25946;SDS011;13745;51.470;9.894;2023-05-10T01:56:10;3.25;;;2.25;;
25946;SDS011;13745;51.470;9.894;2023-05-10T01:58:57;4.35;;;2.38;;
25946;SDS011;13745;51.470;9.894;2023-05-10T02:01:44;7.15;;;2.15;;
25946;SDS011;13745;51.470;9.894;2023-05-10T02:04:31;2.55;;;2.28;;
25946;SDS011;13745;51.470;9.894;2023-05-10T02:07:21;5.63;;;2.50;;
25946;SDS011;13745;51.470;9.894;2023-05-10T02:10:08;3.92;;;2.30;;
25946;SDS011;13745;51.470;9.894;2023-05-10T02:12:55;2.85;;;2.55;;
25946;SDS011;13745;51.470;9.894;2023-05-10T02:15:45;3.83;;;2.80;;
25946;SDS011;13745;51.470;9.894;2023-05-10T02:18:33;5.60;;;2.92;;
25946;SDS011;13745;51.470;9.894;2023-05-10T02:21:20;5.13;;;2.22;;
25946;SDS011;13745;51.470;9.894;2023-05-10T02:24:08;4.50;;;2.80;;
25946;SDS011;13745;51.470;9.894;2023-05-10T02:26:55;3.15;;;2.78;;
25946;SDS011;13745;51.470;9.894;2023-05-10T02:29:41;4.68;;;2.60;;
25946;SDS011;13745;51.470;9.894;2023-05-10T02:32:27;4.25;;;2.40;;
25946;SDS011;13745;51.470;9.894;2023-05-10T02:35:14;3.80;;;2.80;;
25946;SDS011;13745;51.470;9.894;2023-05-10T02:38:01;3.42;;;2.90;;
25946;SDS011;13745;51.470;9.894;2023-05-10T02:40:49;4.10;;;2.35;;
25946;SDS011;13745;51.470;9.894;2023-05-10T02:43:35;4.65;;;2.92;;
25946;SDS011;13745;51.470;9.894;2023-05-10T02:46:24;3.25;;;2.88;;
25946;SDS011;13745;51.470;9.894;2023-05-10T02:49:10;6.90;;;2.90;;
25946;SDS011;13745;51.470;9.894;2023-05-10T02:51:56;3.72;;;3.35;;
25946;SDS011;13745;51.470;9.894;2023-05-10T02:54:46;6.03;;;3.35;;
25946;SDS011;13745;51.470;9.894;2023-05-10T02:57:37;3.67;;;3.22;;
25946;SDS011;13745;51.470;9.894;2023-05-10T03:00:26;4.90;;;3.40;;
25946;SDS011;13745;51.470;9.894;2023-05-10T03:03:11;4.03;;;3.60;;
25946;SDS011;13745;51.470;9.894;2023-05-10T03:05:57;6.25;;;3.75;;
25946;SDS011;13745;51.470;9.894;2023-05-10T03:08:42;8.63;;;3.92;;
25946;SDS011;13745;51.470;9.894;2023-05-10T03:11:32;6.10;;;3.65;;
25946;SDS011;13745;51.470;9.894;2023-05-10T03:14:34;5.43;;;3.80;;
25946;SDS011;13745;51.470;9.894;2023-05-10T03:17:29;5.55;;;3.92;;
25946;SDS011;13745;51.470;9.894;2023-05-10T03:20:21;4.15;;;3.75;;
25946;SDS011;13745;51.470;9.894;2023-05-10T03:23:11;4.72;;;3.70;;
25946;SDS011;13745;51.470;9.894;2023-05-10T03:26:00;4.95;;;3.85;;
25946;SDS011;13745;51.470;9.894;2023-05-10T03:28:48;4.65;;;4.00;;
25946;SDS011;13745;51.470;9.894;2023-05-10T03:31:35;4.40;;;3.88;;
25946;SDS011;13745;51.470;9.894;2023-05-10T03:34:23;5.85;;;4.68;;
25946;SDS011;13745;51.470;9.894;2023-05-10T03:37:09;4.55;;;4.13;;
25946;SDS011;13745;51.470;9.894;2023-05-10T03:39:54;4.43;;;3.72;;
25946;SDS011;13745;51.470;9.894;2023-05-10T03:42:39;4.15;;;3.75;;
25946;SDS011;13745;51.470;9.894;2023-05-10T03:45:24;5.43;;;4.35;;
25946;SDS011;13745;51.470;9.894;2023-05-10T03:48:11;6.03;;;4.70;;
25946;SDS011;13745;51.470;9.894;2023-05-10T03:50:58;7.95;;;4.20;;
25946;SDS011;13745;51.470;9.894;2023-05-10T03:53:43;4.40;;;4.00;;
25946;SDS011;13745;51.470;9.894;2023-05-10T03:56:29;7.72;;;4.53;;
25946;SDS011;13745;51.470;9.894;2023-05-10T03:59:14;8.85;;;5.03;;
25946;SDS011;13745;51.470;9.894;2023-05-10T04:01:59;6.85;;;4.57;;
25946;SDS011;13745;51.470;9.894;2023-05-10T04:04:46;10.02;;;6.40;;
25946;SDS011;13745;51.470;9.894;2023-05-10T04:07:31;5.25;;;4.75;;
25946;SDS011;13745;51.470;9.894;2023-05-10T04:10:16;5.18;;;4.38;;
25946;SDS011;13745;51.470;9.894;2023-05-10T04:13:02;7.82;;;4.78;;
25946;SDS011;13745;51.470;9.894;2023-05-10T04:15:47;7.00;;;5.45;;
25946;SDS011;13745;51.470;9.894;2023-05-10T04:18:32;6.35;;;4.55;;
25946;SDS011;13745;51.470;9.894;2023-05-10T04:21:18;5.68;;;4.57;;
25946;SDS011;13745;51.470;9.894;2023-05-10T04:24:04;9.13;;;5.35;;
25946;SDS011;13745;51.470;9.894;2023-05-10T04:26:49;5.75;;;5.13;;
25946;SDS011;13745;51.470;9.894;2023-05-10T04:29:34;5.10;;;4.60;;
25946;SDS011;13745;51.470;9.894;2023-05-10T04:32:19;5.80;;;5.03;;
25946;SDS011;13745;51.470;9.894;2023-05-10T04:35:04;7.68;;;5.53;;
25946;SDS011;13745;51.470;9.894;2023-05-10T04:37:51;5.57;;;5.07;;
25946;SDS011;13745;51.470;9.894;2023-05-10T04:40:37;9.75;;;6.20;;
25946;SDS011;13745;51.470;9.894;2023-05-10T04:43:22;9.25;;;5.55;;
25946;SDS011;13745;51.470;9.894;2023-05-10T04:46:07;5.78;;;5.20;;
25946;SDS011;13745;51.470;9.894;2023-05-10T04:48:52;6.53;;;5.53;;
25946;SDS011;13745;51.470;9.894;2023-05-10T04:51:37;6.32;;;5.32;;
25946;SDS011;13745;51.470;9.894;2023-05-10T04:54:23;6.50;;;5.57;;
25946;SDS011;13745;51.470;9.894;2023-05-10T04:57:08;7.07;;;5.75;;
25946;SDS011;13745;51.470;9.894;2023-05-10T04:59:53;5.72;;;5.13;;
25946;SDS011;13745;51.470;9.894;2023-05-10T05:02:41;8.23;;;5.35;;
25946;SDS011;13745;51.470;9.894;2023-05-10T05:05:27;5.55;;;4.93;;
25946;SDS011;13745;51.470;9.894;2023-05-10T05:08:12;7.28;;;5.38;;
25946;SDS011;13745;51.470;9.894;2023-05-10T05:10:58;6.70;;;5.90;;
25946;SDS011;13745;51.470;9.894;2023-05-10T05:13:44;6.40;;;5.78;;
25946;SDS011;13745;51.470;9.894;2023-05-10T05:16:30;6.55;;;4.90;;
25946;SDS011;13745;51.470;9.894;2023-05-10T05:19:15;4.25;;;3.83;;
25946;SDS011;13745;51.470;9.894;2023-05-10T05:22:00;6.07;;;4.15;;
25946;SDS011;13745;51.470;9.894;2023-05-10T05:24:45;4.82;;;3.90;;
25946;SDS011;13745;51.470;9.894;2023-05-10T05:27:32;6.10;;;3.50;;
25946;SDS011;13745;51.470;9.894;2023-05-10T05:30:17;3.65;;;3.13;;
25946;SDS011;13745;51.470;9.894;2023-05-10T05:33:02;3.88;;;3.13;;
25946;SDS011;13745;51.470;9.894;2023-05-10T05:35:47;3.63;;;3.30;;
25946;SDS011;13745;51.470;9.894;2023-05-10T05:38:34;3.85;;;3.10;;
25946;SDS011;13745;51.470;9.894;2023-05-10T05:41:19;3.58;;;3.20;;
25946;SDS011;13745;51.470;9.894;2023-05-10T05:44:06;2.88;;;2.08;;
25946;SDS011;13745;51.470;9.894;2023-05-10T05:46:51;4.15;;;2.90;;
25946;SDS011;13745;51.470;9.894;2023-05-10T05:49:37;3.15;;;2.85;;
25946;SDS011;13745;51.470;9.894;2023-05-10T05:52:23;3.47;;;2.70;;
25946;SDS011;13745;51.470;9.894;2023-05-10T05:55:08;4.03;;;2.83;;
25946;SDS011;13745;51.470;9.894;2023-05-10T05:57:53;3.38;;;2.65;;
25946;SDS011;13745;51.470;9.894;2023-05-10T06:00:40;4.88;;;2.70;;
25946;SDS011;13745;51.470;9.894;2023-05-10T06:03:25;3.78;;;2.67;;
25946;SDS011;13745;51.470;9.894;2023-05-10T06:06:10;5.13;;;2.50;;
25946;SDS011;13745;51.470;9.894;2023-05-10T06:08:56;4.13;;;2.38;;
25946;SDS011;13745;51.470;9.894;2023-05-10T06:11:41;3.47;;;2.72;;
25946;SDS011;13745;51.470;9.894;2023-05-10T06:14:26;2.47;;;1.63;;
25946;SDS011;13745;51.470;9.894;2023-05-10T06:17:13;4.47;;;2.17;;
25946;SDS011;13745;51.470;9.894;2023-05-10T06:19:58;2.50;;;2.30;;
25946;SDS011;13745;51.470;9.894;2023-05-10T06:22:43;3.30;;;1.92;;
25946;SDS011;13745;51.470;9.894;2023-05-10T06:25:29;1.20;;;1.10;;
25946;SDS011;13745;51.470;9.894;2023-05-10T06:28:14;0.70;;;0.70;;
25946;SDS011;13745;51.470;9.894;2023-05-10T06:30:59;0.85;;;0.73;;
25946;SDS011;13745;51.470;9.894;2023-05-10T06:33:46;0.70;;;0.70;;
25946;SDS011;13745;51.470;9.894;2023-05-10T06:36:32;1.70;;;0.90;;
25946;SDS011;13745;51.470;9.894;2023-05-10T06:39:17;2.40;;;0.85;;
25946;SDS011;13745;51.470;9.894;2023-05-10T06:42:02;0.88;;;0.80;;
25946;SDS011;13745;51.470;9.894;2023-05-10T06:44:50;1.35;;;0.75;;
25946;SDS011;13745;51.470;9.894;2023-05-10T06:47:35;0.50;;;0.50;;
25946;SDS011;13745;51.470;9.894;2023-05-10T06:50:22;1.05;;;0.70;;
25946;SDS011;13745;51.470;9.894;2023-05-10T06:53:07;0.80;;;0.50;;
25946;SDS011;13745;51.470;9.894;2023-05-10T06:55:53;1.00;;;0.73;;
25946;SDS011;13745;51.470;9.894;2023-05-10T06:58:38;0.52;;;0.50;;
25946;SDS011;13745;51.470;9.894;2023-05-10T07:01:23;0.32;;;0.30;;
25946;SDS011;13745;51.470;9.894;2023-05-10T07:04:08;0.55;;;0.30;;
25946;SDS011;13745;51.470;9.894;2023-05-10T07:06:55;1.90;;;0.20;;
25946;SDS011;13745;51.470;9.894;2023-05-10T07:09:40;0.38;;;0.35;;
25946;SDS011;13745;51.470;9.894;2023-05-10T07:12:26;0.30;;;0.30;;
25946;SDS011;13745;51.470;9.894;2023-05-10T07:15:11;0.43;;;0.20;;
25946;SDS011;13745;51.470;9.894;2023-05-10T07:17:56;0.20;;;0.20;;
25946;SDS011;13745;51.470;9.894;2023-05-10T07:20:41;0.40;;;0.20;;
25946;SDS011;13745;51.470;9.894;2023-05-10T07:23:27;0.38;;;0.20;;
25946;SDS011;13745;51.470;9.894;2023-05-10T07:26:13;0.43;;;0.10;;
25946;SDS011;13745;51.470;9.894;2023-05-10T07:28:58;1.08;;;0.30;;
25946;SDS011;13745;51.470;9.894;2023-05-10T07:31:43;0.10;;;0.05;;
25946;SDS011;13745;51.470;9.894;2023-05-10T07:34:28;0.10;;;0.10;;
25946;SDS011;13745;51.470;9.894;2023-05-10T07:37:15;0.30;;;0.20;;
25946;SDS011;13745;51.470;9.894;2023-05-10T07:40:01;0.20;;;0.20;;
25946;SDS011;13745;51.470;9.894;2023-05-10T07:42:46;0.28;;;0.20;;
25946;SDS011;13745;51.470;9.894;2023-05-10T07:45:32;0.10;;;0.10;;
25946;SDS011;13745;51.470;9.894;2023-05-10T07:48:17;0.20;;;0.20;;
25946;SDS011;13745;51.470;9.894;2023-05-10T07:51:02;0.45;;;0.30;;
25946;SDS011;13745;51.470;9.894;2023-05-10T07:53:48;0.38;;;0.38;;
25946;SDS011;13745;51.470;9.894;2023-05-10T07:56:35;0.28;;;0.20;;
25946;SDS011;13745;51.470;9.894;2023-05-10T07:59:20;0.50;;;0.30;;
25946;SDS011;13745;51.470;9.894;2023-05-10T08:02:05;0.38;;;0.30;;
25946;SDS011;13745;51.470;9.894;2023-05-10T08:04:51;1.25;;;0.40;;
25946;SDS011;13745;51.470;9.894;2023-05-10T08:07:36;0.65;;;0.30;;
25946;SDS011;13745;51.470;9.894;2023-05-10T08:10:21;0.68;;;0.50;;
25946;SDS011;13745;51.470;9.894;2023-05-10T08:13:08;0.52;;;0.22;;
25946;SDS011;13745;51.470;9.894;2023-05-10T08:15:53;0.30;;;0.30;;
25946;SDS011;13745;51.470;9.894;2023-05-10T08:18:39;0.32;;;0.25;;
25946;SDS011;13745;51.470;9.894;2023-05-10T08:21:24;1.20;;;0.30;;
25946;SDS011;13745;51.470;9.894;2023-05-10T08:24:10;0.45;;;0.20;;
25946;SDS011;13745;51.470;9.894;2023-05-10T08:26:55;1.95;;;0.30;;
25946;SDS011;13745;51.470;9.894;2023-05-10T08:29:42;0.52;;;0.30;;
25946;SDS011;13745;51.470;9.894;2023-05-10T08:32:27;2.17;;;0.32;;
25946;SDS011;13745;51.470;9.894;2023-05-10T08:35:12;1.02;;;0.28;;
25946;SDS011;13745;51.470;9.894;2023-05-10T08:37:57;0.20;;;0.20;;
25946;SDS011;13745;51.470;9.894;2023-05-10T08:40:43;0.38;;;0.30;;
25946;SDS011;13745;51.470;9.894;2023-05-10T08:43:29;0.30;;;0.30;;
25946;SDS011;13745;51.470;9.894;2023-05-10T08:46:17;0.80;;;0.30;;
25946;SDS011;13745;51.470;9.894;2023-05-10T08:49:03;1.15;;;0.70;;
25946;SDS011;13745;51.470;9.894;2023-05-10T08:51:49;2.65;;;0.40;;
25946;SDS011;13745;51.470;9.894;2023-05-10T08:54:36;0.65;;;0.28;;
25946;SDS011;13745;51.470;9.894;2023-05-10T08:57:23;1.02;;;0.52;;
25946;SDS011;13745;51.470;9.894;2023-05-10T09:00:08;3.47;;;0.50;;
25946;SDS011;13745;51.470;9.894;2023-05-10T09:02:56;0.95;;;0.30;;
25946;SDS011;13745;51.470;9.894;2023-05-10T09:05:42;0.38;;;0.20;;
25946;SDS011;13745;51.470;9.894;2023-05-10T09:08:28;0.30;;;0.30;;
25946;SDS011;13745;51.470;9.894;2023-05-10T09:11:14;2.15;;;0.15;;
25946;SDS011;13745;51.470;9.894;2023-05-10T09:14:00;0.20;;;0.13;;
25946;SDS011;13745;51.470;9.894;2023-05-10T09:16:46;0.57;;;0.30;;
25946;SDS011;13745;51.470;9.894;2023-05-10T09:19:33;0.22;;;0.20;;
25946;SDS011;13745;51.470;9.894;2023-05-10T09:22:18;0.55;;;0.20;;
25946;SDS011;13745;51.470;9.894;2023-05-10T09:25:04;0.80;;;0.30;;
25946;SDS011;13745;51.470;9.894;2023-05-10T09:27:53;0.50;;;0.20;;
25946;SDS011;13745;51.470;9.894;2023-05-10T09:30:38;0.45;;;0.17;;
25946;SDS011;13745;51.470;9.894;2023-05-10T09:33:24;0.20;;;0.13;;
25946;SDS011;13745;51.470;9.894;2023-05-10T09:36:11;0.43;;;0.20;;
25946;SDS011;13745;51.470;9.894;2023-05-10T09:38:57;0.63;;;0.20;;
25946;SDS011;13745;51.470;9.894;2023-05-10T09:41:42;1.75;;;0.30;;
25946;SDS011;13745;51.470;9.894;2023-05-10T09:44:27;0.52;;;0.30;;
25946;SDS011;13745;51.470;9.894;2023-05-10T09:47:16;0.35;;;0.13;;
25946;SDS011;13745;51.470;9.894;2023-05-10T09:50:01;0.63;;;0.20;;
25946;SDS011;13745;51.470;9.894;2023-05-10T09:52:50;0.57;;;0.20;;
25946;SDS011;13745;51.470;9.894;2023-05-10T09:55:40;1.55;;;0.30;;
25946;SDS011;13745;51.470;9.894;2023-05-10T09:58:28;1.98;;;1.05;;
25946;SDS011;13745;51.470;9.894;2023-05-10T10:01:13;0.75;;;0.20;;
25946;SDS011;13745;51.470;9.894;2023-05-10T10:03:59;0.40;;;0.10;;
25946;SDS011;13745;51.470;9.894;2023-05-10T10:06:57;0.43;;;0.30;;
25946;SDS011;13745;51.470;9.894;2023-05-10T10:09:45;0.15;;;0.15;;
25946;SDS011;13745;51.470;9.894;2023-05-10T10:12:30;0.38;;;0.25;;
25946;SDS011;13745;51.470;9.894;2023-05-10T10:15:16;2.05;;;0.30;;
25946;SDS011;13745;51.470;9.894;2023-05-10T10:18:01;2.22;;;0.30;;
25946;SDS011;13745;51.470;9.894;2023-05-10T10:20:47;0.57;;;0.28;;
25946;SDS011;13745;51.470;9.894;2023-05-10T10:23:32;0.65;;;0.20;;
25946;SDS011;13745;51.470;9.894;2023-05-10T10:26:19;1.25;;;0.20;;
25946;SDS011;13745;51.470;9.894;2023-05-10T10:29:08;1.45;;;0.40;;
25946;SDS011;13745;51.470;9.894;2023-05-10T10:32:03;0.70;;;0.40;;
25946;SDS011;13745;51.470;9.894;2023-05-10T10:34:54;0.40;;;0.35;;
25946;SDS011;13745;51.470;9.894;2023-05-10T10:37:43;1.00;;;0.35;;
25946;SDS011;13745;51.470;9.894;2023-05-10T10:40:30;0.20;;;0.20;;
25946;SDS011;13745;51.470;9.894;2023-05-10T10:43:24;1.00;;;0.40;;
25946;SDS011;13745;51.470;9.894;2023-05-10T10:46:11;4.55;;;0.68;;
25946;SDS011;13745;51.470;9.894;2023-05-10T10:49:08;1.17;;;0.50;;
25946;SDS011;13745;51.470;9.894;2023-05-10T10:52:13;2.80;;;0.50;;
25946;SDS011;13745;51.470;9.894;2023-05-10T10:55:06;0.77;;;0.60;;
25946;SDS011;13745;51.470;9.894;2023-05-10T10:57:53;1.90;;;0.95;;
25946;SDS011;13745;51.470;9.894;2023-05-10T11:00:45;1.35;;;0.52;;
25946;SDS011;13745;51.470;9.894;2023-05-10T11:03:31;2.70;;;0.73;;
25946;SDS011;13745;51.470;9.894;2023-05-10T11:06:16;1.40;;;0.70;;
25946;SDS011;13745;51.470;9.894;2023-05-10T11:09:15;1.45;;;0.63;;
25946;SDS011;13745;51.470;9.894;2023-05-10T11:12:07;1.05;;;0.57;;
25946;SDS011;13745;51.470;9.894;2023-05-10T11:14:53;2.25;;;0.60;;
25946;SDS011;13745;51.470;9.894;2023-05-10T11:17:43;1.15;;;0.50;;
25946;SDS011;13745;51.470;9.894;2023-05-10T11:20:38;2.42;;;0.70;;
25946;SDS011;13745;51.470;9.894;2023-05-10T11:23:28;0.82;;;0.40;;
25946;SDS011;13745;51.470;9.894;2023-05-10T11:26:15;1.85;;;0.50;;
25946;SDS011;13745;51.470;9.894;2023-05-10T11:29:00;0.68;;;0.50;;
25946;SDS011;13745;51.470;9.894;2023-05-10T11:31:48;1.70;;;0.45;;
25946;SDS011;13745;51.470;9.894;2023-05-10T11:34:35;0.50;;;0.40;;
25946;SDS011;13745;51.470;9.894;2023-05-10T11:37:20;2.60;;;0.55;;
25946;SDS011;13745;51.470;9.894;2023-05-10T11:40:06;0.77;;;0.30;;
25946;SDS011;13745;51.470;9.894;2023-05-10T11:42:55;1.58;;;0.90;;
25946;SDS011;13745;51.470;9.894;2023-05-10T11:45:40;1.52;;;0.80;;
25946;SDS011;13745;51.470;9.894;2023-05-10T11:48:26;1.98;;;0.70;;
25946;SDS011;13745;51.470;9.894;2023-05-10T11:51:12;1.30;;;0.80;;
25946;SDS011;13745;51.470;9.894;2023-05-10T11:53:58;3.47;;;1.45;;
25946;SDS011;13745;51.470;9.894;2023-05-10T11:56:43;3.13;;;1.80;;
25946;SDS011;13745;51.470;9.894;2023-05-10T11:59:29;3.35;;;2.35;;
25946;SDS011;13745;51.470;9.894;2023-05-10T12:02:14;2.42;;;1.55;;
25946;SDS011;13745;51.470;9.894;2023-05-10T12:05:00;2.45;;;2.15;;
25946;SDS011;13745;51.470;9.894;2023-05-10T12:07:47;3.53;;;2.80;;
25946;SDS011;13745;51.470;9.894;2023-05-10T12:10:34;4.22;;;3.00;;
25946;SDS011;13745;51.470;9.894;2023-05-10T12:13:19;3.40;;;2.70;;
25946;SDS011;13745;51.470;9.894;2023-05-10T12:16:12;6.15;;;3.78;;
25946;SDS011;13745;51.470;9.894;2023-05-10T12:18:58;3.88;;;3.33;;
25946;SDS011;13745;51.470;9.894;2023-05-10T12:21:44;3.38;;;3.08;;
25946;SDS011;13745;51.470;9.894;2023-05-10T12:24:31;3.25;;;2.67;;
25946;SDS011;13745;51.470;9.894;2023-05-10T12:27:18;3.85;;;2.95;;
25946;SDS011;13745;51.470;9.894;2023-05-10T12:30:04;4.55;;;3.03;;
25946;SDS011;13745;51.470;9.894;2023-05-10T12:32:51;3.65;;;2.50;;
25946;SDS011;13745;51.470;9.894;2023-05-10T12:35:45;4.10;;;2.70;;
25946;SDS011;13745;51.470;9.894;2023-05-10T12:38:32;5.70;;;2.67;;
25946;SDS011;13745;51.470;9.894;2023-05-10T12:41:19;3.95;;;2.90;;
25946;SDS011;13745;51.470;9.894;2023-05-10T12:44:04;4.25;;;2.90;;
25946;SDS011;13745;51.470;9.894;2023-05-10T12:46:49;3.03;;;2.72;;
25946;SDS011;13745;51.470;9.894;2023-05-10T12:49:34;3.58;;;2.78;;
25946;SDS011;13745;51.470;9.894;2023-05-10T12:52:20;6.72;;;2.55;;
25946;SDS011;13745;51.470;9.894;2023-05-10T12:55:05;3.47;;;2.33;;
25946;SDS011;13745;51.470;9.894;2023-05-10T12:57:52;4.10;;;2.40;;
25946;SDS011;13745;51.470;9.894;2023-05-10T13:00:37;5.35;;;3.08;;
25946;SDS011;13745;51.470;9.894;2023-05-10T13:03:22;3.63;;;2.80;;
25946;SDS011;13745;51.470;9.894;2023-05-10T13:06:08;3.50;;;3.20;;
25946;SDS011;13745;51.470;9.894;2023-05-10T13:08:53;4.88;;;3.13;;
25946;SDS011;13745;51.470;9.894;2023-05-10T13:11:38;3.28;;;2.53;;
25946;SDS011;13745;51.470;9.894;2023-05-10T13:14:25;3.40;;;2.50;;
25946;SDS011;13745;51.470;9.894;2023-05-10T13:17:10;2.92;;;2.33;;
25946;SDS011;13745;51.470;9.894;2023-05-10T13:19:55;2.63;;;2.42;;
25946;SDS011;13745;51.470;9.894;2023-05-10T13:22:40;3.45;;;3.15;;
25946;SDS011;13745;51.470;9.894;2023-05-10T13:25:25;4.47;;;2.92;;
25946;SDS011;13745;51.470;9.894;2023-05-10T13:28:11;3.33;;;2.40;;
25946;SDS011;13745;51.470;9.894;2023-05-10T13:30:57;5.72;;;2.78;;
25946;SDS011;13745;51.470;9.894;2023-05-10T13:33:43;3.33;;;2.67;;
25946;SDS011;13745;51.470;9.894;2023-05-10T13:36:28;4.43;;;2.83;;
25946;SDS011;13745;51.470;9.894;2023-05-10T13:39:14;3.72;;;3.30;;
25946;SDS011;13745;51.470;9.894;2023-05-10T13:41:59;3.75;;;2.83;;
25946;SDS011;13745;51.470;9.894;2023-05-10T13:44:44;4.28;;;2.72;;
25946;SDS011;13745;51.470;9.894;2023-05-10T13:47:31;4.38;;;2.85;;
25946;SDS011;13745;51.470;9.894;2023-05-10T13:50:16;2.50;;;2.30;;
25946;SDS011;13745;51.470;9.894;2023-05-10T13:53:01;5.18;;;2.90;;
25946;SDS011;13745;51.470;9.894;2023-05-10T13:55:47;2.78;;;2.53;;
25946;SDS011;13745;51.470;9.894;2023-05-10T13:58:32;3.33;;;2.60;;
25946;SDS011;13745;51.470;9.894;2023-05-10T14:01:17;3.15;;;2.47;;
25946;SDS011;13745;51.470;9.894;2023-05-10T14:04:03;6.10;;;2.70;;
25946;SDS011;13745;51.470;9.894;2023-05-10T14:06:48;3.17;;;2.88;;
25946;SDS011;13745;51.470;9.894;2023-05-10T14:09:33;3.80;;;3.50;;
25946;SDS011;13745;51.470;9.894;2023-05-10T14:12:19;4.22;;;3.80;;
25946;SDS011;13745;51.470;9.894;2023-05-10T14:15:04;4.28;;;3.85;;
25946;SDS011;13745;51.470;9.894;2023-05-10T14:17:50;5.50;;;4.15;;
25946;SDS011;13745;51.470;9.894;2023-05-10T14:20:36;7.47;;;4.45;;
25946;SDS011;13745;51.470;9.894;2023-05-10T14:23:21;6.60;;;4.20;;
25946;SDS011;13745;51.470;9.894;2023-05-10T14:26:08;5.80;;;4.30;;
25946;SDS011;13745;51.470;9.894;2023-05-10T14:28:53;5.72;;;4.15;;
25946;SDS011;13745;51.470;9.894;2023-05-10T14:31:39;7.45;;;4.15;;
25946;SDS011;13745;51.470;9.894;2023-05-10T14:34:25;6.18;;;3.63;;
25946;SDS011;13745;51.470;9.894;2023-05-10T14:37:11;5.13;;;3.30;;
25946;SDS011;13745;51.470;9.894;2023-05-10T14:39:58;4.05;;;3.50;;
25946;SDS011;13745;51.470;9.894;2023-05-10T14:42:43;7.88;;;3.70;;
25946;SDS011;13745;51.470;9.894;2023-05-10T14:45:28;5.47;;;3.63;;
25946;SDS011;13745;51.470;9.894;2023-05-10T14:48:14;7.22;;;5.22;;
25946;SDS011;13745;51.470;9.894;2023-05-10T14:51:01;4.45;;;3.00;;
25946;SDS011;13745;51.470;9.894;2023-05-10T14:53:48;3.53;;;2.58;;
25946;SDS011;13745;51.470;9.894;2023-05-10T14:56:33;3.63;;;3.15;;
25946;SDS011;13745;51.470;9.894;2023-05-10T14:59:19;3.50;;;2.75;;
25946;SDS011;13745;51.470;9.894;2023-05-10T15:02:05;8.23;;;3.90;;
25946;SDS011;13745;51.470;9.894;2023-05-10T15:04:51;3.50;;;2.80;;
25946;SDS011;13745;51.470;9.894;2023-05-10T15:07:36;7.53;;;3.90;;
25946;SDS011;13745;51.470;9.894;2023-05-10T15:10:23;4.43;;;3.63;;
25946;SDS011;13745;51.470;9.894;2023-05-10T15:13:09;4.10;;;3.00;;
25946;SDS011;13745;51.470;9.894;2023-05-10T15:15:53;2.95;;;2.50;;
25946;SDS011;13745;51.470;9.894;2023-05-10T15:18:39;2.88;;;1.70;;
25946;SDS011;13745;51.470;9.894;2023-05-10T15:21:24;2.58;;;1.77;;
25946;SDS011;13745;51.470;9.894;2023-05-10T15:24:09;1.83;;;1.52;;
25946;SDS011;13745;51.470;9.894;2023-05-10T15:26:55;1.88;;;1.27;;
25946;SDS011;13745;51.470;9.894;2023-05-10T15:29:41;3.05;;;1.48;;
25946;SDS011;13745;51.470;9.894;2023-05-10T15:32:26;2.90;;;1.30;;
25946;SDS011;13745;51.470;9.894;2023-05-10T15:35:12;2.03;;;1.52;;
25946;SDS011;13745;51.470;9.894;2023-05-10T15:37:58;2.85;;;1.58;;
25946;SDS011;13745;51.470;9.894;2023-05-10T15:40:43;2.60;;;1.52;;
25946;SDS011;13745;51.470;9.894;2023-05-10T15:43:30;1.80;;;1.45;;
25946;SDS011;13745;51.470;9.894;2023-05-10T15:46:15;3.70;;;1.80;;
25946;SDS011;13745;51.470;9.894;2023-05-10T15:49:01;2.63;;;1.88;;
25946;SDS011;13745;51.470;9.894;2023-05-10T15:51:46;3.65;;;1.65;;
25946;SDS011;13745;51.470;9.894;2023-05-10T15:54:32;3.30;;;1.77;;
25946;SDS011;13745;51.470;9.894;2023-05-10T15:57:17;3.40;;;1.50;;
25946;SDS011;13745;51.470;9.894;2023-05-10T16:00:04;2.72;;;1.63;;
25946;SDS011;13745;51.470;9.894;2023-05-10T16:05:40;1.35;;;1.10;;
25946;SDS011;13745;51.470;9.894;2023-05-10T16:08:26;1.75;;;0.90;;
25946;SDS011;13745;51.470;9.894;2023-05-10T16:11:13;2.22;;;1.58;;
25946;SDS011;13745;51.470;9.894;2023-05-10T16:13:58;4.32;;;1.42;;
25946;SDS011;13745;51.470;9.894;2023-05-10T16:16:45;1.42;;;1.20;;
25946;SDS011;13745;51.470;9.894;2023-05-10T16:19:30;3.30;;;1.70;;
25946;SDS011;13745;51.470;9.894;2023-05-10T16:22:15;5.03;;;1.85;;
25946;SDS011;13745;51.470;9.894;2023-05-10T16:25:01;3.75;;;2.00;;
25946;SDS011;13745;51.470;9.894;2023-05-10T16:27:46;2.75;;;1.88;;
25946;SDS011;13745;51.470;9.894;2023-05-10T16:30:31;1.90;;;1.48;;
25946;SDS011;13745;51.470;9.894;2023-05-10T16:33:18;2.33;;;1.70;;
25946;SDS011;13745;51.470;9.894;2023-05-10T16:36:03;2.58;;;1.80;;
25946;SDS011;13745;51.470;9.894;2023-05-10T16:38:48;2.83;;;1.98;;
25946;SDS011;13745;51.470;9.894;2023-05-10T16:41:34;2.55;;;2.08;;
25946;SDS011;13745;51.470;9.894;2023-05-10T16:44:19;3.03;;;2.30;;
25946;SDS011;13745;51.470;9.894;2023-05-10T16:47:04;2.80;;;2.25;;
25946;SDS011;13745;51.470;9.894;2023-05-10T16:49:51;2.95;;;2.08;;